sensor_id;sensor_type;location;lat;lon;timestamp;pressure;altitude;pressure_sealevel;temperature;humidity
3654;BME280;70277;54.302;10.064;2023-07-29T00:02:15;100468.94;;;16.97;80.15
3654;BME280;70277;54.302;10.064;2023-07-29T00:04:41;100459.94;;;16.96;80.11
3654;BME280;70277;54.302;10.064;2023-07-29T00:07:08;100457.13;;;17.01;80.06
3654;BME280;70277;54.302;10.064;2023-07-29T00:09:34;100463.84;;;16.90;79.72
3654;BME280;70277;54.302;10.064;2023-07-29T00:12:01;100465.84;;;16.85;79.60
3654;BME280;70277;54.302;10.064;2023-07-29T00:14:27;100475.09;;;16.51;80.32
3654;BME280;70277;54.302;10.064;2023-07-29T00:16:54;100465.56;;;16.48;82.02
3654;BME280;70277;54.302;10.064;2023-07-29T00:19:20;100470.59;;;16.60;82.89
3654;BME280;70277;54.302;10.064;2023-07-29T00:21:49;100470.13;;;16.72;82.14
3654;BME280;70277;54.302;10.064;2023-07-29T00:24:16;100462.38;;;16.79;81.74
3654;BME280;70277;54.302;10.064;2023-07-29T00:26:42;100457.72;;;16.98;81.98
3654;BME280;70277;54.302;10.064;2023-07-29T00:29:09;100464.03;;;17.13;81.08
3654;BME280;70277;54.302;10.064;2023-07-29T00:31:35;100454.03;;;17.22;80.73
3654;BME280;70277;54.302;10.064;2023-07-29T00:34:02;100450.09;;;17.28;80.14
3654;BME280;70277;54.302;10.064;2023-07-29T00:36:28;100443.09;;;17.36;79.98
3654;BME280;70277;54.302;10.064;2023-07-29T00:38:55;100442.97;;;17.27;79.31
3654;BME280;70277;54.302;10.064;2023-07-29T00:41:23;100437.16;;;17.34;79.23
3654;BME280;70277;54.302;10.064;2023-07-29T00:43:50;100429.06;;;17.42;79.18
3654;BME280;70277;54.302;10.064;2023-07-29T00:46:16;100428.03;;;17.52;78.91
3654;BME280;70277;54.302;10.064;2023-07-29T00:48:43;100429.25;;;17.60;78.49
3654;BME280;70277;54.302;10.064;2023-07-29T00:51:10;100426.63;;;17.55;78.59
3654;BME280;70277;54.302;10.064;2023-07-29T00:53:36;100420.13;;;17.37;79.06
3654;BME280;70277;54.302;10.064;2023-07-29T00:56:03;100417.69;;;17.35;78.76
3654;BME280;70277;54.302;10.064;2023-07-29T00:58:29;100425.97;;;17.30;79.18
3654;BME280;70277;54.302;10.064;2023-07-29T01:00:57;100425.38;;;17.33;79.51
3654;BME280;70277;54.302;10.064;2023-07-29T01:03:23;100425.19;;;17.43;79.48
3654;BME280;70277;54.302;10.064;2023-07-29T01:06:08;100419.13;;;17.46;78.24
3654;BME280;70277;54.302;10.064;2023-07-29T01:11:33;100413.44;;;17.43;78.48
3654;BME280;70277;54.302;10.064;2023-07-29T01:14:16;100402.00;;;16.94;79.75
3654;BME280;70277;54.302;10.064;2023-07-29T01:16:52;100410.66;;;16.82;80.39
3654;BME280;70277;54.302;10.064;2023-07-29T01:21:55;100404.50;;;17.10;79.45
3654;BME280;70277;54.302;10.064;2023-07-29T01:24:22;100393.97;;;17.17;78.91
3654;BME280;70277;54.302;10.064;2023-07-29T01:26:48;100396.59;;;17.22;78.01
3654;BME280;70277;54.302;10.064;2023-07-29T01:29:15;100393.50;;;16.96;78.05
3654;BME280;70277;54.302;10.064;2023-07-29T01:31:44;100393.59;;;16.91;78.99
3654;BME280;70277;54.302;10.064;2023-07-29T01:34:26;100401.00;;;16.71;80.68
3654;BME280;70277;54.302;10.064;2023-07-29T01:36:57;100388.00;;;16.82;80.14
3654;BME280;70277;54.302;10.064;2023-07-29T01:39:29;100389.19;;;16.76;80.13
3654;BME280;70277;54.302;10.064;2023-07-29T01:41:58;100400.56;;;16.83;79.09
3654;BME280;70277;54.302;10.064;2023-07-29T01:44:26;100410.25;;;16.56;82.72
3654;BME280;70277;54.302;10.064;2023-07-29T01:46:52;100400.13;;;16.76;81.83
3654;BME280;70277;54.302;10.064;2023-07-29T01:49:18;100400.69;;;16.73;80.98
3654;BME280;70277;54.302;10.064;2023-07-29T01:51:45;100396.56;;;16.75;81.13
3654;BME280;70277;54.302;10.064;2023-07-29T01:54:11;100401.97;;;16.80;80.76
3654;BME280;70277;54.302;10.064;2023-07-29T01:56:38;100391.66;;;16.77;80.42
3654;BME280;70277;54.302;10.064;2023-07-29T01:59:04;100396.13;;;16.87;80.49
3654;BME280;70277;54.302;10.064;2023-07-29T02:01:31;100395.53;;;16.90;80.42
3654;BME280;70277;54.302;10.064;2023-07-29T02:03:57;100398.78;;;16.92;80.62
3654;BME280;70277;54.302;10.064;2023-07-29T02:06:24;100396.38;;;17.04;80.10
3654;BME280;70277;54.302;10.064;2023-07-29T02:08:51;100393.16;;;17.16;79.42
3654;BME280;70277;54.302;10.064;2023-07-29T02:11:17;100396.44;;;16.99;79.56
3654;BME280;70277;54.302;10.064;2023-07-29T02:13:46;100401.59;;;16.87;79.78
3654;BME280;70277;54.302;10.064;2023-07-29T02:16:13;100390.47;;;16.97;79.39
3654;BME280;70277;54.302;10.064;2023-07-29T02:18:39;100388.25;;;16.99;78.77
3654;BME280;70277;54.302;10.064;2023-07-29T02:21:05;100386.44;;;17.09;78.49
3654;BME280;70277;54.302;10.064;2023-07-29T02:23:32;100375.50;;;17.09;78.67
3654;BME280;70277;54.302;10.064;2023-07-29T02:25:59;100371.47;;;17.20;78.64
3654;BME280;70277;54.302;10.064;2023-07-29T02:28:25;100370.84;;;17.09;79.89
3654;BME280;70277;54.302;10.064;2023-07-29T02:31:15;100370.88;;;17.23;79.64
3654;BME280;70277;54.302;10.064;2023-07-29T02:33:43;100378.66;;;17.29;79.87
3654;BME280;70277;54.302;10.064;2023-07-29T02:36:11;100373.31;;;17.38;79.72
3654;BME280;70277;54.302;10.064;2023-07-29T02:38:38;100368.66;;;17.52;78.90
3654;BME280;70277;54.302;10.064;2023-07-29T02:41:05;100369.25;;;17.49;79.11
3654;BME280;70277;54.302;10.064;2023-07-29T02:43:31;100373.72;;;17.45;79.23
3654;BME280;70277;54.302;10.064;2023-07-29T02:45:58;100365.72;;;17.49;79.03
3654;BME280;70277;54.302;10.064;2023-07-29T02:48:25;100362.97;;;17.35;79.19
3654;BME280;70277;54.302;10.064;2023-07-29T02:50:51;100358.13;;;17.46;79.08
3654;BME280;70277;54.302;10.064;2023-07-29T02:53:18;100359.53;;;17.57;78.72
3654;BME280;70277;54.302;10.064;2023-07-29T02:55:44;100358.50;;;17.53;78.98
3654;BME280;70277;54.302;10.064;2023-07-29T02:58:10;100353.34;;;17.65;79.02
3654;BME280;70277;54.302;10.064;2023-07-29T03:00:37;100347.16;;;17.60;78.59
3654;BME280;70277;54.302;10.064;2023-07-29T03:03:05;100351.22;;;17.48;79.13
3654;BME280;70277;54.302;10.064;2023-07-29T03:05:31;100352.00;;;17.63;78.66
3654;BME280;70277;54.302;10.064;2023-07-29T03:07:58;100346.06;;;17.61;78.84
3654;BME280;70277;54.302;10.064;2023-07-29T03:10:25;100360.16;;;17.54;79.03
3654;BME280;70277;54.302;10.064;2023-07-29T03:12:53;100359.13;;;17.50;79.02
3654;BME280;70277;54.302;10.064;2023-07-29T03:15:23;100350.63;;;17.51;78.95
3654;BME280;70277;54.302;10.064;2023-07-29T03:17:54;100352.84;;;17.49;79.30
3654;BME280;70277;54.302;10.064;2023-07-29T03:20:20;100362.28;;;17.57;78.89
3654;BME280;70277;54.302;10.064;2023-07-29T03:22:47;100357.59;;;17.44;79.45
3654;BME280;70277;54.302;10.064;2023-07-29T03:25:14;100358.13;;;17.46;79.71
3654;BME280;70277;54.302;10.064;2023-07-29T03:27:41;100361.25;;;17.25;80.26
3654;BME280;70277;54.302;10.064;2023-07-29T03:30:08;100365.69;;;17.63;79.84
3654;BME280;70277;54.302;10.064;2023-07-29T03:32:35;100358.13;;;17.46;79.99
3654;BME280;70277;54.302;10.064;2023-07-29T03:35:02;100363.28;;;17.47;79.94
3654;BME280;70277;54.302;10.064;2023-07-29T03:37:28;100361.34;;;17.62;79.21
3654;BME280;70277;54.302;10.064;2023-07-29T03:39:55;100363.78;;;17.49;79.33
3654;BME280;70277;54.302;10.064;2023-07-29T03:42:21;100368.44;;;17.63;79.67
3654;BME280;70277;54.302;10.064;2023-07-29T03:44:48;100370.69;;;17.61;79.52
3654;BME280;70277;54.302;10.064;2023-07-29T03:47:14;100369.38;;;17.58;79.88
3654;BME280;70277;54.302;10.064;2023-07-29T03:49:40;100364.69;;;17.59;79.68
3654;BME280;70277;54.302;10.064;2023-07-29T03:52:07;100349.41;;;17.58;79.62
3654;BME280;70277;54.302;10.064;2023-07-29T03:54:33;100355.44;;;17.68;79.86
3654;BME280;70277;54.302;10.064;2023-07-29T03:57:00;100351.50;;;17.88;79.28
3654;BME280;70277;54.302;10.064;2023-07-29T03:59:26;100358.28;;;17.77;79.62
3654;BME280;70277;54.302;10.064;2023-07-29T04:01:53;100362.38;;;17.80;79.80
3654;BME280;70277;54.302;10.064;2023-07-29T04:04:20;100361.88;;;17.78;79.68
3654;BME280;70277;54.302;10.064;2023-07-29T04:06:47;100359.16;;;17.78;79.59
3654;BME280;70277;54.302;10.064;2023-07-29T04:09:13;100362.56;;;17.69;79.97
3654;BME280;70277;54.302;10.064;2023-07-29T04:11:40;100359.84;;;17.56;81.08
3654;BME280;70277;54.302;10.064;2023-07-29T04:14:06;100360.13;;;17.68;81.17
3654;BME280;70277;54.302;10.064;2023-07-29T04:16:32;100365.91;;;17.80;80.71
3654;BME280;70277;54.302;10.064;2023-07-29T04:18:59;100394.78;;;17.31;82.40
3654;BME280;70277;54.302;10.064;2023-07-29T04:21:26;100393.81;;;16.94;83.46
3654;BME280;70277;54.302;10.064;2023-07-29T04:23:52;100377.63;;;17.12;83.44
3654;BME280;70277;54.302;10.064;2023-07-29T04:26:18;100377.03;;;17.15;83.75
3654;BME280;70277;54.302;10.064;2023-07-29T04:28:45;100370.28;;;17.26;83.45
3654;BME280;70277;54.302;10.064;2023-07-29T04:31:11;100361.38;;;17.34;83.55
3654;BME280;70277;54.302;10.064;2023-07-29T04:33:38;100371.59;;;17.42;83.14
3654;BME280;70277;54.302;10.064;2023-07-29T04:36:04;100360.72;;;17.65;82.33
3654;BME280;70277;54.302;10.064;2023-07-29T04:38:32;100360.13;;;17.68;81.84
3654;BME280;70277;54.302;10.064;2023-07-29T04:40:59;100348.78;;;17.61;82.09
3654;BME280;70277;54.302;10.064;2023-07-29T04:43:31;100358.31;;;17.36;82.62
3654;BME280;70277;54.302;10.064;2023-07-29T04:45:57;100361.44;;;17.57;82.74
3654;BME280;70277;54.302;10.064;2023-07-29T04:48:24;100342.50;;;17.46;82.38
3654;BME280;70277;54.302;10.064;2023-07-29T04:50:50;100335.53;;;17.54;82.83
3654;BME280;70277;54.302;10.064;2023-07-29T04:53:17;100326.28;;;17.50;82.96
3654;BME280;70277;54.302;10.064;2023-07-29T04:55:43;100324.66;;;17.63;82.97
3654;BME280;70277;54.302;10.064;2023-07-29T04:58:10;100324.88;;;17.66;82.49
3654;BME280;70277;54.302;10.064;2023-07-29T05:00:37;100329.09;;;17.86;82.23
3654;BME280;70277;54.302;10.064;2023-07-29T05:03:03;100331.97;;;17.81;82.07
3654;BME280;70277;54.302;10.064;2023-07-29T05:05:30;100343.09;;;17.85;81.61
3654;BME280;70277;54.302;10.064;2023-07-29T05:07:56;100333.75;;;18.00;81.42
3654;BME280;70277;54.302;10.064;2023-07-29T05:10:23;100335.44;;;18.09;80.90
3654;BME280;70277;54.302;10.064;2023-07-29T05:12:49;100349.19;;;17.95;81.17
3654;BME280;70277;54.302;10.064;2023-07-29T05:15:16;100338.69;;;18.11;81.20
3654;BME280;70277;54.302;10.064;2023-07-29T05:17:42;100337.50;;;18.26;80.93
3654;BME280;70277;54.302;10.064;2023-07-29T05:20:09;100338.13;;;18.23;81.08
3654;BME280;70277;54.302;10.064;2023-07-29T05:22:35;100329.78;;;18.28;80.77
3654;BME280;70277;54.302;10.064;2023-07-29T05:25:02;100336.78;;;18.34;80.46
3654;BME280;70277;54.302;10.064;2023-07-29T05:27:29;100327.41;;;18.35;80.66
3654;BME280;70277;54.302;10.064;2023-07-29T05:29:55;100325.88;;;18.43;80.44
3654;BME280;70277;54.302;10.064;2023-07-29T05:32:22;100323.09;;;18.65;79.82
3654;BME280;70277;54.302;10.064;2023-07-29T05:34:48;100325.47;;;18.81;79.86
3654;BME280;70277;54.302;10.064;2023-07-29T05:37:15;100329.84;;;18.82;79.12
3654;BME280;70277;54.302;10.064;2023-07-29T05:39:41;100327.25;;;19.08;78.43
3654;BME280;70277;54.302;10.064;2023-07-29T05:42:08;100329.59;;;19.01;77.61
3654;BME280;70277;54.302;10.064;2023-07-29T05:44:34;100325.31;;;19.08;78.25
3654;BME280;70277;54.302;10.064;2023-07-29T05:47:01;100325.66;;;19.16;77.99
3654;BME280;70277;54.302;10.064;2023-07-29T05:49:27;100330.19;;;19.20;77.86
3654;BME280;70277;54.302;10.064;2023-07-29T05:51:54;100330.06;;;19.34;78.11
3654;BME280;70277;54.302;10.064;2023-07-29T05:54:20;100319.56;;;19.27;77.89
3654;BME280;70277;54.302;10.064;2023-07-29T05:56:47;100315.50;;;19.65;77.15
3654;BME280;70277;54.302;10.064;2023-07-29T05:59:13;100317.63;;;19.85;77.36
3654;BME280;70277;54.302;10.064;2023-07-29T06:01:40;100307.91;;;20.05;76.14
3654;BME280;70277;54.302;10.064;2023-07-29T06:04:06;100308.91;;;20.18;75.61
3654;BME280;70277;54.302;10.064;2023-07-29T06:06:33;100309.22;;;20.34;74.90
3654;BME280;70277;54.302;10.064;2023-07-29T06:09:00;100301.91;;;20.46;75.20
3654;BME280;70277;54.302;10.064;2023-07-29T06:11:26;100301.47;;;20.53;75.52
3654;BME280;70277;54.302;10.064;2023-07-29T06:13:53;100300.16;;;20.42;74.73
3654;BME280;70277;54.302;10.064;2023-07-29T06:16:19;100309.72;;;20.27;75.54
3654;BME280;70277;54.302;10.064;2023-07-29T06:18:47;100306.47;;;20.16;76.00
3654;BME280;70277;54.302;10.064;2023-07-29T06:21:13;100309.53;;;19.89;76.73
3654;BME280;70277;54.302;10.064;2023-07-29T06:23:43;100308.25;;;20.21;78.93
3654;BME280;70277;54.302;10.064;2023-07-29T06:26:10;100317.13;;;20.53;76.11
3654;BME280;70277;54.302;10.064;2023-07-29T06:28:36;100310.00;;;20.34;75.57
3654;BME280;70277;54.302;10.064;2023-07-29T06:31:03;100300.97;;;20.25;77.25
3654;BME280;70277;54.302;10.064;2023-07-29T06:33:29;100309.22;;;20.08;76.20
3654;BME280;70277;54.302;10.064;2023-07-29T06:35:56;100299.69;;;20.14;77.16
3654;BME280;70277;54.302;10.064;2023-07-29T06:38:23;100307.75;;;20.02;76.46
3654;BME280;70277;54.302;10.064;2023-07-29T06:40:49;100293.66;;;20.38;77.27
3654;BME280;70277;54.302;10.064;2023-07-29T06:43:16;100303.31;;;20.79;74.85
3654;BME280;70277;54.302;10.064;2023-07-29T06:45:43;100294.50;;;20.30;75.39
3654;BME280;70277;54.302;10.064;2023-07-29T06:48:09;100300.00;;;19.86;77.75
3654;BME280;70277;54.302;10.064;2023-07-29T06:50:36;100300.00;;;20.21;78.15
3654;BME280;70277;54.302;10.064;2023-07-29T06:53:03;100294.19;;;20.14;78.63
3654;BME280;70277;54.302;10.064;2023-07-29T06:55:29;100293.38;;;19.78;78.38
3654;BME280;70277;54.302;10.064;2023-07-29T06:57:55;100293.06;;;20.06;79.44
3654;BME280;70277;54.302;10.064;2023-07-29T07:00:22;100290.31;;;19.89;78.85
3654;BME280;70277;54.302;10.064;2023-07-29T07:02:48;100285.63;;;19.81;79.74
3654;BME280;70277;54.302;10.064;2023-07-29T07:05:15;100281.09;;;19.67;79.65
3654;BME280;70277;54.302;10.064;2023-07-29T07:07:42;100285.91;;;19.62;79.99
3654;BME280;70277;54.302;10.064;2023-07-29T07:10:08;100299.84;;;19.83;80.06
3654;BME280;70277;54.302;10.064;2023-07-29T07:12:35;100292.28;;;20.06;79.51
3654;BME280;70277;54.302;10.064;2023-07-29T07:15:02;100286.63;;;19.85;78.89
3654;BME280;70277;54.302;10.064;2023-07-29T07:17:28;100292.28;;;19.97;80.05
3654;BME280;70277;54.302;10.064;2023-07-29T07:19:55;100296.59;;;19.81;79.11
3654;BME280;70277;54.302;10.064;2023-07-29T07:22:21;100295.47;;;20.25;79.74
3654;BME280;70277;54.302;10.064;2023-07-29T07:24:48;100290.97;;;20.12;78.25
3654;BME280;70277;54.302;10.064;2023-07-29T07:27:14;100295.31;;;20.21;78.01
3654;BME280;70277;54.302;10.064;2023-07-29T07:29:41;100296.13;;;20.13;77.23
3654;BME280;70277;54.302;10.064;2023-07-29T07:32:07;100290.63;;;20.31;78.37
3654;BME280;70277;54.302;10.064;2023-07-29T07:34:34;100288.50;;;20.62;78.55
3654;BME280;70277;54.302;10.064;2023-07-29T07:37:00;100284.91;;;20.71;77.43
3654;BME280;70277;54.302;10.064;2023-07-29T07:39:27;100278.47;;;20.40;76.91
3654;BME280;70277;54.302;10.064;2023-07-29T07:41:53;100275.28;;;20.21;78.14
3654;BME280;70277;54.302;10.064;2023-07-29T07:44:20;100280.56;;;20.43;77.19
3654;BME280;70277;54.302;10.064;2023-07-29T07:46:47;100274.41;;;20.46;77.14
3654;BME280;70277;54.302;10.064;2023-07-29T07:49:13;100271.03;;;20.97;76.59
3654;BME280;70277;54.302;10.064;2023-07-29T07:51:40;100274.56;;;21.06;75.09
3654;BME280;70277;54.302;10.064;2023-07-29T07:54:06;100278.25;;;20.80;75.02
3654;BME280;70277;54.302;10.064;2023-07-29T07:56:33;100280.13;;;20.97;76.29
3654;BME280;70277;54.302;10.064;2023-07-29T07:59:00;100276.13;;;20.86;76.50
3654;BME280;70277;54.302;10.064;2023-07-29T08:01:26;100286.47;;;20.89;76.30
3654;BME280;70277;54.302;10.064;2023-07-29T08:03:53;100283.31;;;20.52;75.59
3654;BME280;70277;54.302;10.064;2023-07-29T08:06:19;100283.31;;;20.52;76.25
3654;BME280;70277;54.302;10.064;2023-07-29T08:08:46;100284.59;;;20.46;76.17
3654;BME280;70277;54.302;10.064;2023-07-29T08:11:12;100287.03;;;20.48;77.39
3654;BME280;70277;54.302;10.064;2023-07-29T08:13:39;100272.16;;;20.40;77.53
3654;BME280;70277;54.302;10.064;2023-07-29T08:16:05;100289.94;;;20.60;75.39
3654;BME280;70277;54.302;10.064;2023-07-29T08:18:32;100285.09;;;20.48;75.69
3654;BME280;70277;54.302;10.064;2023-07-29T08:20:59;100286.50;;;20.80;76.07
3654;BME280;70277;54.302;10.064;2023-07-29T08:23:31;100286.22;;;21.03;75.11
3654;BME280;70277;54.302;10.064;2023-07-29T08:26:00;100278.47;;;21.64;73.83
3654;BME280;70277;54.302;10.064;2023-07-29T08:28:33;100289.22;;;21.99;71.74
3654;BME280;70277;54.302;10.064;2023-07-29T08:31:00;100279.66;;;22.38;69.97
3654;BME280;70277;54.302;10.064;2023-07-29T08:33:27;100281.03;;;21.90;71.72
3654;BME280;70277;54.302;10.064;2023-07-29T08:35:53;100272.25;;;22.51;72.67
3654;BME280;70277;54.302;10.064;2023-07-29T08:38:20;100272.19;;;22.39;69.94
3654;BME280;70277;54.302;10.064;2023-07-29T08:40:57;100273.66;;;22.69;69.10
3654;BME280;70277;54.302;10.064;2023-07-29T08:43:29;100277.72;;;23.21;68.00
3654;BME280;70277;54.302;10.064;2023-07-29T08:45:59;100262.53;;;22.45;69.23
3654;BME280;70277;54.302;10.064;2023-07-29T08:48:35;100272.25;;;22.30;68.58
3654;BME280;70277;54.302;10.064;2023-07-29T08:51:04;100282.84;;;22.07;69.35
3654;BME280;70277;54.302;10.064;2023-07-29T08:53:31;100284.28;;;22.46;70.60
3654;BME280;70277;54.302;10.064;2023-07-29T08:55:58;100271.22;;;22.22;69.19
3654;BME280;70277;54.302;10.064;2023-07-29T08:58:25;100277.00;;;21.88;70.00
3654;BME280;70277;54.302;10.064;2023-07-29T09:00:51;100270.78;;;22.12;70.41
3654;BME280;70277;54.302;10.064;2023-07-29T09:03:20;100263.81;;;22.47;70.62
3654;BME280;70277;54.302;10.064;2023-07-29T09:05:47;100260.66;;;22.70;68.96
3654;BME280;70277;54.302;10.064;2023-07-29T09:08:14;100253.88;;;22.22;69.31
3654;BME280;70277;54.302;10.064;2023-07-29T09:10:41;100259.81;;;23.03;68.58
3654;BME280;70277;54.302;10.064;2023-07-29T09:13:07;100246.41;;;23.54;67.79
3654;BME280;70277;54.302;10.064;2023-07-29T09:15:35;100252.25;;;23.65;65.19
3654;BME280;70277;54.302;10.064;2023-07-29T09:18:19;100253.75;;;23.62;66.89
3654;BME280;70277;54.302;10.064;2023-07-29T09:20:47;100249.63;;;23.56;66.05
3654;BME280;70277;54.302;10.064;2023-07-29T09:23:14;100255.91;;;23.16;66.51
3654;BME280;70277;54.302;10.064;2023-07-29T09:25:41;100252.66;;;23.38;67.24
3654;BME280;70277;54.302;10.064;2023-07-29T09:28:10;100254.28;;;23.03;66.97
3654;BME280;70277;54.302;10.064;2023-07-29T09:30:41;100260.44;;;22.63;67.67
3654;BME280;70277;54.302;10.064;2023-07-29T09:33:09;100253.41;;;22.20;70.26
3654;BME280;70277;54.302;10.064;2023-07-29T09:35:37;100256.06;;;22.86;68.26
3654;BME280;70277;54.302;10.064;2023-07-29T09:38:05;100243.59;;;23.66;65.22
3654;BME280;70277;54.302;10.064;2023-07-29T09:40:40;100248.09;;;22.48;67.07
3654;BME280;70277;54.302;10.064;2023-07-29T09:43:09;100260.97;;;22.56;66.87
3654;BME280;70277;54.302;10.064;2023-07-29T09:45:37;100257.97;;;22.49;68.04
3654;BME280;70277;54.302;10.064;2023-07-29T09:48:04;100248.53;;;22.96;66.54
3654;BME280;70277;54.302;10.064;2023-07-29T09:50:35;100242.47;;;23.79;66.47
3654;BME280;70277;54.302;10.064;2023-07-29T09:53:02;100241.66;;;23.54;63.16
3654;BME280;70277;54.302;10.064;2023-07-29T09:55:32;100224.78;;;23.44;62.08
3654;BME280;70277;54.302;10.064;2023-07-29T09:58:00;100231.91;;;24.25;61.44
3654;BME280;70277;54.302;10.064;2023-07-29T10:00:34;100244.91;;;23.56;60.62
3654;BME280;70277;54.302;10.064;2023-07-29T10:03:01;100236.75;;;24.16;60.50
3654;BME280;70277;54.302;10.064;2023-07-29T10:05:28;100237.69;;;23.39;62.81
3654;BME280;70277;54.302;10.064;2023-07-29T10:07:56;100238.38;;;23.24;63.79
3654;BME280;70277;54.302;10.064;2023-07-29T10:10:23;100239.50;;;22.86;64.41
3654;BME280;70277;54.302;10.064;2023-07-29T10:12:50;100241.34;;;22.70;65.30
3654;BME280;70277;54.302;10.064;2023-07-29T10:15:17;100241.84;;;22.84;64.67
3654;BME280;70277;54.302;10.064;2023-07-29T10:17:45;100238.72;;;23.35;63.58
3654;BME280;70277;54.302;10.064;2023-07-29T10:20:15;100236.50;;;23.53;63.58
3654;BME280;70277;54.302;10.064;2023-07-29T10:22:43;100230.19;;;23.93;63.01
3654;BME280;70277;54.302;10.064;2023-07-29T10:25:17;100225.28;;;24.74;59.94
3654;BME280;70277;54.302;10.064;2023-07-29T10:27:56;100216.84;;;25.02;58.21
3654;BME280;70277;54.302;10.064;2023-07-29T10:30:28;100221.47;;;25.30;56.46
3654;BME280;70277;54.302;10.064;2023-07-29T10:32:56;100230.16;;;26.02;56.63
3654;BME280;70277;54.302;10.064;2023-07-29T10:35:24;100227.59;;;26.55;54.20
3654;BME280;70277;54.302;10.064;2023-07-29T10:37:51;100222.25;;;26.24;53.10
3654;BME280;70277;54.302;10.064;2023-07-29T10:40:19;100219.03;;;26.22;54.45
3654;BME280;70277;54.302;10.064;2023-07-29T10:43:06;100220.00;;;27.25;52.28
3654;BME280;70277;54.302;10.064;2023-07-29T10:45:39;100214.09;;;26.77;51.00
3654;BME280;70277;54.302;10.064;2023-07-29T10:48:13;100203.78;;;27.57;51.63
3654;BME280;70277;54.302;10.064;2023-07-29T10:51:36;100209.69;;;27.26;49.86
3654;BME280;70277;54.302;10.064;2023-07-29T10:54:09;100205.97;;;26.91;50.53
3654;BME280;70277;54.302;10.064;2023-07-29T10:56:42;100225.28;;;27.07;50.49
3654;BME280;70277;54.302;10.064;2023-07-29T11:01:42;100211.09;;;26.63;50.63
3654;BME280;70277;54.302;10.064;2023-07-29T11:15:21;100196.94;;;26.48;50.95
3654;BME280;70277;54.302;10.064;2023-07-29T11:17:51;100208.91;;;26.52;50.75
3654;BME280;70277;54.302;10.064;2023-07-29T11:20:19;100203.91;;;25.06;53.91
3654;BME280;70277;54.302;10.064;2023-07-29T11:22:46;100198.59;;;24.82;54.74
3654;BME280;70277;54.302;10.064;2023-07-29T11:25:15;100212.19;;;25.38;54.44
3654;BME280;70277;54.302;10.064;2023-07-29T11:27:42;100207.66;;;25.49;53.29
3654;BME280;70277;54.302;10.064;2023-07-29T11:30:14;100212.84;;;25.15;53.88
3654;BME280;70277;54.302;10.064;2023-07-29T11:32:43;100204.84;;;26.04;52.60
3654;BME280;70277;54.302;10.064;2023-07-29T11:35:12;100205.91;;;26.19;51.48
3654;BME280;70277;54.302;10.064;2023-07-29T11:37:45;100195.72;;;27.49;50.31
3654;BME280;70277;54.302;10.064;2023-07-29T11:40:16;100198.97;;;27.54;50.48
3654;BME280;70277;54.302;10.064;2023-07-29T11:42:44;100197.22;;;26.89;52.61
3654;BME280;70277;54.302;10.064;2023-07-29T11:45:13;100194.91;;;26.45;53.29
3654;BME280;70277;54.302;10.064;2023-07-29T11:47:43;100198.50;;;25.84;53.95
3654;BME280;70277;54.302;10.064;2023-07-29T11:50:11;100194.38;;;26.17;53.56
3654;BME280;70277;54.302;10.064;2023-07-29T11:52:41;100188.13;;;26.66;51.14
3654;BME280;70277;54.302;10.064;2023-07-29T11:55:09;100191.25;;;27.74;49.10
3654;BME280;70277;54.302;10.064;2023-07-29T11:57:37;100199.97;;;28.40;48.19
3654;BME280;70277;54.302;10.064;2023-07-29T12:00:05;100184.03;;;29.44;46.52
3654;BME280;70277;54.302;10.064;2023-07-29T12:02:36;100190.16;;;28.57;46.10
3654;BME280;70277;54.302;10.064;2023-07-29T12:05:04;100197.47;;;29.28;45.38
3654;BME280;70277;54.302;10.064;2023-07-29T12:07:31;100192.91;;;28.12;44.81
3654;BME280;70277;54.302;10.064;2023-07-29T12:09:59;100198.25;;;29.28;43.45
3654;BME280;70277;54.302;10.064;2023-07-29T12:12:26;100193.00;;;29.96;42.00
3654;BME280;70277;54.302;10.064;2023-07-29T12:14:54;100193.38;;;29.87;41.47
3654;BME280;70277;54.302;10.064;2023-07-29T12:17:21;100199.09;;;29.29;42.60
3654;BME280;70277;54.302;10.064;2023-07-29T12:19:48;100196.75;;;29.45;42.59
3654;BME280;70277;54.302;10.064;2023-07-29T12:22:18;100203.31;;;29.78;43.28
3654;BME280;70277;54.302;10.064;2023-07-29T12:24:45;100201.03;;;29.28;43.81
3654;BME280;70277;54.302;10.064;2023-07-29T12:27:13;100213.38;;;27.94;44.95
3654;BME280;70277;54.302;10.064;2023-07-29T12:29:41;100212.44;;;27.22;47.72
3654;BME280;70277;54.302;10.064;2023-07-29T12:32:09;100221.59;;;26.76;50.24
3654;BME280;70277;54.302;10.064;2023-07-29T12:34:38;100219.69;;;25.76;51.64
3654;BME280;70277;54.302;10.064;2023-07-29T12:37:06;100222.22;;;25.46;53.19
3654;BME280;70277;54.302;10.064;2023-07-29T12:39:35;100217.13;;;24.97;54.07
3654;BME280;70277;54.302;10.064;2023-07-29T12:42:02;100218.84;;;24.70;54.71
3654;BME280;70277;54.302;10.064;2023-07-29T12:44:34;100215.63;;;24.52;54.74
3654;BME280;70277;54.302;10.064;2023-07-29T12:47:02;100215.31;;;23.97;56.33
3654;BME280;70277;54.302;10.064;2023-07-29T12:49:29;100219.03;;;24.17;56.40
3654;BME280;70277;54.302;10.064;2023-07-29T12:51:59;100219.59;;;25.02;54.54
3654;BME280;70277;54.302;10.064;2023-07-29T12:54:26;100227.25;;;26.38;51.88
3654;BME280;70277;54.302;10.064;2023-07-29T12:56:53;100213.44;;;26.41;50.40
3654;BME280;70277;54.302;10.064;2023-07-29T12:59:19;100220.94;;;26.83;49.27
3654;BME280;70277;54.302;10.064;2023-07-29T13:01:46;100212.91;;;26.55;49.04
3654;BME280;70277;54.302;10.064;2023-07-29T13:04:12;100220.50;;;26.81;48.22
3654;BME280;70277;54.302;10.064;2023-07-29T13:06:39;100220.19;;;26.86;48.54
3654;BME280;70277;54.302;10.064;2023-07-29T13:09:06;100216.63;;;27.69;47.46
3654;BME280;70277;54.302;10.064;2023-07-29T13:11:33;100215.84;;;26.62;49.47
3654;BME280;70277;54.302;10.064;2023-07-29T13:13:59;100226.25;;;26.69;49.00